sensor_id;sensor_type;location;lat;lon;timestamp;P1;durP1;ratioP1;P2;durP2;ratioP2
32445;SDS011;18899;50.748;7.102;2023-04-24T00:00:54;1.92;;;0.60;;
32445;SDS011;18899;50.748;7.102;2023-04-24T00:03:24;1.60;;;0.70;;
32445;SDS011;18899;50.748;7.102;2023-04-24T00:05:52;1.73;;;0.65;;
32445;SDS011;18899;50.748;7.102;2023-04-24T00:08:18;1.33;;;0.55;;
32445;SDS011;18899;50.748;7.102;2023-04-24T00:10:44;3.17;;;0.50;;
32445;SDS011;18899;50.748;7.102;2023-04-24T00:13:10;1.52;;;0.60;;
32445;SDS011;18899;50.748;7.102;2023-04-24T00:15:35;0.70;;;0.50;;
32445;SDS011;18899;50.748;7.102;2023-04-24T00:18:01;1.27;;;0.60;;
32445;SDS011;18899;50.748;7.102;2023-04-24T00:20:27;0.77;;;0.50;;
32445;SDS011;18899;50.748;7.102;2023-04-24T00:22:57;1.38;;;0.63;;
32445;SDS011;18899;50.748;7.102;2023-04-24T00:25:23;1.35;;;0.60;;
32445;SDS011;18899;50.748;7.102;2023-04-24T00:27:48;1.58;;;0.50;;
32445;SDS011;18899;50.748;7.102;2023-04-24T00:30:14;1.23;;;0.40;;
32445;SDS011;18899;50.748;7.102;2023-04-24T00:32:39;3.55;;;0.60;;
32445;SDS011;18899;50.748;7.102;2023-04-24T00:35:05;1.10;;;0.57;;
32445;SDS011;18899;50.748;7.102;2023-04-24T00:37:31;1.15;;;0.50;;
32445;SDS011;18899;50.748;7.102;2023-04-24T00:39:57;5.13;;;0.60;;
32445;SDS011;18899;50.748;7.102;2023-04-24T00:42:23;0.60;;;0.45;;
32445;SDS011;18899;50.748;7.102;2023-04-24T00:44:49;2.03;;;0.57;;
32445;SDS011;18899;50.748;7.102;2023-04-24T00:47:15;2.40;;;0.43;;
32445;SDS011;18899;50.748;7.102;2023-04-24T00:49:41;2.55;;;0.65;;
32445;SDS011;18899;50.748;7.102;2023-04-24T00:52:07;0.73;;;0.50;;
32445;SDS011;18899;50.748;7.102;2023-04-24T00:54:34;1.48;;;0.60;;
32445;SDS011;18899;50.748;7.102;2023-04-24T00:57:00;1.55;;;0.50;;
32445;SDS011;18899;50.748;7.102;2023-04-24T00:59:27;0.80;;;0.50;;
32445;SDS011;18899;50.748;7.102;2023-04-24T01:01:53;0.90;;;0.40;;
32445;SDS011;18899;50.748;7.102;2023-04-24T01:04:19;1.00;;;0.57;;
32445;SDS011;18899;50.748;7.102;2023-04-24T01:06:45;1.05;;;0.50;;
32445;SDS011;18899;50.748;7.102;2023-04-24T01:09:11;0.50;;;0.30;;
32445;SDS011;18899;50.748;7.102;2023-04-24T01:11:37;2.90;;;0.52;;
32445;SDS011;18899;50.748;7.102;2023-04-24T01:14:03;0.90;;;0.50;;
32445;SDS011;18899;50.748;7.102;2023-04-24T01:16:28;1.00;;;0.50;;
32445;SDS011;18899;50.748;7.102;2023-04-24T01:18:54;2.30;;;0.70;;
32445;SDS011;18899;50.748;7.102;2023-04-24T01:21:20;1.35;;;0.40;;
32445;SDS011;18899;50.748;7.102;2023-04-24T01:23:46;1.23;;;0.50;;
32445;SDS011;18899;50.748;7.102;2023-04-24T01:26:16;0.50;;;0.50;;
32445;SDS011;18899;50.748;7.102;2023-04-24T01:28:45;0.75;;;0.50;;
32445;SDS011;18899;50.748;7.102;2023-04-24T01:31:10;1.55;;;0.73;;
32445;SDS011;18899;50.748;7.102;2023-04-24T01:33:36;1.38;;;0.60;;
32445;SDS011;18899;50.748;7.102;2023-04-24T01:36:02;1.00;;;0.77;;
32445;SDS011;18899;50.748;7.102;2023-04-24T01:38:28;1.88;;;0.90;;
32445;SDS011;18899;50.748;7.102;2023-04-24T01:40:53;2.88;;;0.80;;
32445;SDS011;18899;50.748;7.102;2023-04-24T01:43:19;5.32;;;0.88;;
32445;SDS011;18899;50.748;7.102;2023-04-24T01:45:45;2.03;;;0.93;;
32445;SDS011;18899;50.748;7.102;2023-04-24T01:48:11;1.48;;;0.90;;
32445;SDS011;18899;50.748;7.102;2023-04-24T01:50:37;1.92;;;1.08;;
32445;SDS011;18899;50.748;7.102;2023-04-24T01:53:03;4.28;;;1.38;;
32445;SDS011;18899;50.748;7.102;2023-04-24T01:55:28;2.65;;;0.80;;
32445;SDS011;18899;50.748;7.102;2023-04-24T01:57:55;1.65;;;0.95;;
32445;SDS011;18899;50.748;7.102;2023-04-24T02:00:21;2.33;;;1.00;;
32445;SDS011;18899;50.748;7.102;2023-04-24T02:02:47;2.45;;;1.17;;
32445;SDS011;18899;50.748;7.102;2023-04-24T02:05:12;2.38;;;1.00;;
32445;SDS011;18899;50.748;7.102;2023-04-24T02:07:38;1.90;;;0.82;;
32445;SDS011;18899;50.748;7.102;2023-04-24T02:10:04;1.60;;;1.00;;
32445;SDS011;18899;50.748;7.102;2023-04-24T02:12:30;5.20;;;1.30;;
32445;SDS011;18899;50.748;7.102;2023-04-24T02:14:55;4.13;;;1.17;;
32445;SDS011;18899;50.748;7.102;2023-04-24T02:17:21;1.45;;;0.88;;
32445;SDS011;18899;50.748;7.102;2023-04-24T02:19:47;2.50;;;1.80;;
32445;SDS011;18899;50.748;7.102;2023-04-24T02:22:13;3.20;;;1.63;;
32445;SDS011;18899;50.748;7.102;2023-04-24T02:24:38;4.03;;;2.05;;
32445;SDS011;18899;50.748;7.102;2023-04-24T02:27:04;4.45;;;2.55;;
32445;SDS011;18899;50.748;7.102;2023-04-24T02:29:30;5.90;;;2.25;;
32445;SDS011;18899;50.748;7.102;2023-04-24T02:31:56;4.28;;;2.25;;
32445;SDS011;18899;50.748;7.102;2023-04-24T02:34:21;4.47;;;2.28;;
32445;SDS011;18899;50.748;7.102;2023-04-24T02:36:48;5.10;;;2.08;;
32445;SDS011;18899;50.748;7.102;2023-04-24T02:39:13;4.07;;;2.78;;
32445;SDS011;18899;50.748;7.102;2023-04-24T02:41:41;3.95;;;2.65;;
32445;SDS011;18899;50.748;7.102;2023-04-24T02:44:07;6.45;;;3.10;;
32445;SDS011;18899;50.748;7.102;2023-04-24T02:46:33;3.97;;;2.63;;
32445;SDS011;18899;50.748;7.102;2023-04-24T02:48:58;8.07;;;3.33;;
32445;SDS011;18899;50.748;7.102;2023-04-24T02:51:24;6.18;;;3.03;;
32445;SDS011;18899;50.748;7.102;2023-04-24T02:53:50;6.72;;;2.97;;
32445;SDS011;18899;50.748;7.102;2023-04-24T02:56:15;4.70;;;2.95;;
32445;SDS011;18899;50.748;7.102;2023-04-24T02:58:41;4.50;;;2.92;;
32445;SDS011;18899;50.748;7.102;2023-04-24T03:01:07;6.97;;;3.00;;
32445;SDS011;18899;50.748;7.102;2023-04-24T03:03:34;5.07;;;2.92;;
32445;SDS011;18899;50.748;7.102;2023-04-24T03:06:00;9.38;;;2.88;;
32445;SDS011;18899;50.748;7.102;2023-04-24T03:08:26;5.13;;;3.28;;
32445;SDS011;18899;50.748;7.102;2023-04-24T03:10:52;8.20;;;3.38;;
32445;SDS011;18899;50.748;7.102;2023-04-24T03:13:17;8.05;;;3.25;;
32445;SDS011;18899;50.748;7.102;2023-04-24T03:15:43;8.48;;;3.53;;
32445;SDS011;18899;50.748;7.102;2023-04-24T03:18:09;6.63;;;3.78;;
32445;SDS011;18899;50.748;7.102;2023-04-24T03:20:35;5.85;;;3.45;;
32445;SDS011;18899;50.748;7.102;2023-04-24T03:23:02;5.93;;;3.85;;
32445;SDS011;18899;50.748;7.102;2023-04-24T03:25:28;4.72;;;3.15;;
32445;SDS011;18899;50.748;7.102;2023-04-24T03:27:53;6.60;;;4.20;;
32445;SDS011;18899;50.748;7.102;2023-04-24T03:30:19;9.60;;;4.30;;
32445;SDS011;18899;50.748;7.102;2023-04-24T03:32:45;7.18;;;4.40;;
32445;SDS011;18899;50.748;7.102;2023-04-24T03:35:10;8.98;;;4.18;;
32445;SDS011;18899;50.748;7.102;2023-04-24T03:37:36;6.40;;;4.20;;
32445;SDS011;18899;50.748;7.102;2023-04-24T03:40:02;10.32;;;4.53;;
32445;SDS011;18899;50.748;7.102;2023-04-24T03:42:28;6.60;;;4.00;;
32445;SDS011;18899;50.748;7.102;2023-04-24T03:44:53;7.80;;;4.32;;
32445;SDS011;18899;50.748;7.102;2023-04-24T03:47:19;9.63;;;4.10;;
32445;SDS011;18899;50.748;7.102;2023-04-24T03:49:44;7.15;;;3.92;;
32445;SDS011;18899;50.748;7.102;2023-04-24T03:52:10;6.00;;;3.85;;
32445;SDS011;18899;50.748;7.102;2023-04-24T03:54:35;6.25;;;3.83;;
32445;SDS011;18899;50.748;7.102;2023-04-24T03:57:01;5.30;;;3.47;;
32445;SDS011;18899;50.748;7.102;2023-04-24T03:59:26;5.13;;;3.42;;
32445;SDS011;18899;50.748;7.102;2023-04-24T04:01:52;6.40;;;3.75;;
32445;SDS011;18899;50.748;7.102;2023-04-24T04:04:18;6.45;;;3.72;;
32445;SDS011;18899;50.748;7.102;2023-04-24T04:06:43;9.82;;;3.47;;
32445;SDS011;18899;50.748;7.102;2023-04-24T04:09:09;6.88;;;3.90;;
32445;SDS011;18899;50.748;7.102;2023-04-24T04:11:35;7.15;;;3.50;;
32445;SDS011;18899;50.748;7.102;2023-04-24T04:14:01;4.70;;;3.40;;
32445;SDS011;18899;50.748;7.102;2023-04-24T04:16:27;6.07;;;3.20;;
32445;SDS011;18899;50.748;7.102;2023-04-24T04:18:52;6.20;;;3.38;;
32445;SDS011;18899;50.748;7.102;2023-04-24T04:21:18;6.97;;;3.20;;
32445;SDS011;18899;50.748;7.102;2023-04-24T04:23:43;5.75;;;3.20;;
32445;SDS011;18899;50.748;7.102;2023-04-24T04:26:09;8.73;;;3.63;;
32445;SDS011;18899;50.748;7.102;2023-04-24T04:28:36;5.70;;;3.28;;
32445;SDS011;18899;50.748;7.102;2023-04-24T04:31:02;6.72;;;4.00;;
32445;SDS011;18899;50.748;7.102;2023-04-24T04:33:28;5.40;;;3.20;;
32445;SDS011;18899;50.748;7.102;2023-04-24T04:35:53;7.32;;;3.83;;
32445;SDS011;18899;50.748;7.102;2023-04-24T04:38:21;6.85;;;3.90;;
32445;SDS011;18899;50.748;7.102;2023-04-24T04:40:47;9.65;;;4.07;;
32445;SDS011;18899;50.748;7.102;2023-04-24T04:43:13;6.85;;;3.70;;
32445;SDS011;18899;50.748;7.102;2023-04-24T04:45:39;6.80;;;3.47;;
32445;SDS011;18899;50.748;7.102;2023-04-24T04:48:06;7.15;;;3.60;;
32445;SDS011;18899;50.748;7.102;2023-04-24T04:50:37;7.00;;;3.65;;
32445;SDS011;18899;50.748;7.102;2023-04-24T04:53:02;6.38;;;3.40;;
32445;SDS011;18899;50.748;7.102;2023-04-24T04:55:28;5.25;;;3.50;;
32445;SDS011;18899;50.748;7.102;2023-04-24T04:57:54;8.15;;;3.60;;
32445;SDS011;18899;50.748;7.102;2023-04-24T05:00:21;6.78;;;4.07;;
32445;SDS011;18899;50.748;7.102;2023-04-24T05:02:46;5.57;;;3.50;;
32445;SDS011;18899;50.748;7.102;2023-04-24T05:05:12;8.70;;;3.88;;
32445;SDS011;18899;50.748;7.102;2023-04-24T05:07:37;7.97;;;3.42;;
32445;SDS011;18899;50.748;7.102;2023-04-24T05:10:03;5.65;;;3.50;;
32445;SDS011;18899;50.748;7.102;2023-04-24T05:12:29;8.02;;;3.33;;
32445;SDS011;18899;50.748;7.102;2023-04-24T05:14:54;6.53;;;3.30;;
32445;SDS011;18899;50.748;7.102;2023-04-24T05:17:20;6.13;;;3.22;;
32445;SDS011;18899;50.748;7.102;2023-04-24T05:19:46;6.93;;;3.40;;
32445;SDS011;18899;50.748;7.102;2023-04-24T05:22:11;4.43;;;2.72;;
32445;SDS011;18899;50.748;7.102;2023-04-24T05:24:37;5.15;;;2.65;;
32445;SDS011;18899;50.748;7.102;2023-04-24T05:27:03;8.00;;;3.38;;
32445;SDS011;18899;50.748;7.102;2023-04-24T05:29:32;6.47;;;2.88;;
32445;SDS011;18899;50.748;7.102;2023-04-24T05:31:58;7.13;;;3.38;;
32445;SDS011;18899;50.748;7.102;2023-04-24T05:34:24;6.30;;;3.10;;
32445;SDS011;18899;50.748;7.102;2023-04-24T05:36:50;5.93;;;2.70;;
32445;SDS011;18899;50.748;7.102;2023-04-24T05:39:16;4.32;;;2.97;;
32445;SDS011;18899;50.748;7.102;2023-04-24T05:41:41;5.95;;;2.95;;
32445;SDS011;18899;50.748;7.102;2023-04-24T05:44:07;5.03;;;3.17;;
32445;SDS011;18899;50.748;7.102;2023-04-24T05:46:32;11.50;;;3.05;;
32445;SDS011;18899;50.748;7.102;2023-04-24T05:48:58;5.68;;;3.45;;
32445;SDS011;18899;50.748;7.102;2023-04-24T05:51:24;5.30;;;2.83;;
32445;SDS011;18899;50.748;7.102;2023-04-24T05:53:50;5.20;;;3.60;;
32445;SDS011;18899;50.748;7.102;2023-04-24T05:56:16;6.80;;;3.50;;
32445;SDS011;18899;50.748;7.102;2023-04-24T05:58:42;6.40;;;3.28;;
32445;SDS011;18899;50.748;7.102;2023-04-24T06:01:07;5.65;;;3.45;;
32445;SDS011;18899;50.748;7.102;2023-04-24T06:03:33;5.75;;;3.30;;
32445;SDS011;18899;50.748;7.102;2023-04-24T06:05:59;4.75;;;2.90;;
32445;SDS011;18899;50.748;7.102;2023-04-24T06:08:24;6.63;;;3.15;;
32445;SDS011;18899;50.748;7.102;2023-04-24T06:10:50;7.45;;;3.53;;
32445;SDS011;18899;50.748;7.102;2023-04-24T06:13:16;7.35;;;3.63;;
32445;SDS011;18899;50.748;7.102;2023-04-24T06:15:43;9.10;;;4.22;;
32445;SDS011;18899;50.748;7.102;2023-04-24T06:18:08;7.25;;;3.78;;
32445;SDS011;18899;50.748;7.102;2023-04-24T06:20:37;8.20;;;4.10;;
32445;SDS011;18899;50.748;7.102;2023-04-24T06:23:03;5.47;;;3.35;;
32445;SDS011;18899;50.748;7.102;2023-04-24T06:25:29;7.95;;;3.78;;
32445;SDS011;18899;50.748;7.102;2023-04-24T06:27:54;8.00;;;3.92;;
32445;SDS011;18899;50.748;7.102;2023-04-24T06:30:20;7.72;;;3.63;;
32445;SDS011;18899;50.748;7.102;2023-04-24T06:32:46;7.78;;;3.67;;
32445;SDS011;18899;50.748;7.102;2023-04-24T06:35:11;7.70;;;4.25;;
32445;SDS011;18899;50.748;7.102;2023-04-24T06:37:38;7.38;;;3.80;;
32445;SDS011;18899;50.748;7.102;2023-04-24T06:40:05;6.35;;;4.10;;
32445;SDS011;18899;50.748;7.102;2023-04-24T06:42:31;8.48;;;4.30;;
32445;SDS011;18899;50.748;7.102;2023-04-24T06:44:56;7.20;;;4.05;;
32445;SDS011;18899;50.748;7.102;2023-04-24T06:47:22;5.68;;;3.63;;
32445;SDS011;18899;50.748;7.102;2023-04-24T06:49:48;7.88;;;4.28;;
32445;SDS011;18899;50.748;7.102;2023-04-24T06:52:15;7.03;;;4.13;;
32445;SDS011;18899;50.748;7.102;2023-04-24T06:54:41;11.20;;;3.88;;
32445;SDS011;18899;50.748;7.102;2023-04-24T06:57:08;8.73;;;3.60;;
32445;SDS011;18899;50.748;7.102;2023-04-24T06:59:33;7.75;;;3.55;;
32445;SDS011;18899;50.748;7.102;2023-04-24T07:01:59;5.47;;;3.58;;
32445;SDS011;18899;50.748;7.102;2023-04-24T07:04:25;6.10;;;2.95;;
32445;SDS011;18899;50.748;7.102;2023-04-24T07:06:51;4.70;;;3.33;;
32445;SDS011;18899;50.748;7.102;2023-04-24T07:09:19;5.10;;;3.28;;
32445;SDS011;18899;50.748;7.102;2023-04-24T07:11:45;7.47;;;3.10;;
32445;SDS011;18899;50.748;7.102;2023-04-24T07:14:11;7.18;;;2.75;;
32445;SDS011;18899;50.748;7.102;2023-04-24T07:16:37;3.95;;;2.67;;
32445;SDS011;18899;50.748;7.102;2023-04-24T07:19:03;5.18;;;2.80;;
32445;SDS011;18899;50.748;7.102;2023-04-24T07:21:28;5.88;;;3.03;;
32445;SDS011;18899;50.748;7.102;2023-04-24T07:23:56;5.13;;;2.72;;
32445;SDS011;18899;50.748;7.102;2023-04-24T07:26:21;4.25;;;2.75;;
32445;SDS011;18899;50.748;7.102;2023-04-24T07:28:47;5.55;;;2.60;;
32445;SDS011;18899;50.748;7.102;2023-04-24T07:31:12;5.93;;;2.90;;
32445;SDS011;18899;50.748;7.102;2023-04-24T07:33:38;6.57;;;2.50;;
32445;SDS011;18899;50.748;7.102;2023-04-24T07:36:04;3.10;;;1.98;;
32445;SDS011;18899;50.748;7.102;2023-04-24T07:38:30;3.38;;;2.20;;
32445;SDS011;18899;50.748;7.102;2023-04-24T07:40:56;2.63;;;1.98;;
32445;SDS011;18899;50.748;7.102;2023-04-24T07:43:21;2.92;;;2.00;;
32445;SDS011;18899;50.748;7.102;2023-04-24T07:45:48;4.30;;;1.73;;
32445;SDS011;18899;50.748;7.102;2023-04-24T07:48:16;2.50;;;1.63;;
32445;SDS011;18899;50.748;7.102;2023-04-24T07:50:43;2.70;;;1.38;;
32445;SDS011;18899;50.748;7.102;2023-04-24T07:53:09;3.35;;;1.60;;
32445;SDS011;18899;50.748;7.102;2023-04-24T07:55:34;3.33;;;1.40;;
32445;SDS011;18899;50.748;7.102;2023-04-24T07:58:00;2.30;;;1.40;;
32445;SDS011;18899;50.748;7.102;2023-04-24T08:00:26;2.55;;;1.60;;
32445;SDS011;18899;50.748;7.102;2023-04-24T08:02:51;2.55;;;1.55;;
32445;SDS011;18899;50.748;7.102;2023-04-24T08:05:17;2.28;;;1.40;;
32445;SDS011;18899;50.748;7.102;2023-04-24T08:07:42;4.40;;;1.23;;
32445;SDS011;18899;50.748;7.102;2023-04-24T08:10:10;3.47;;;1.23;;
32445;SDS011;18899;50.748;7.102;2023-04-24T08:12:36;3.05;;;1.25;;
32445;SDS011;18899;50.748;7.102;2023-04-24T08:15:04;2.20;;;1.30;;
32445;SDS011;18899;50.748;7.102;2023-04-24T08:17:30;2.22;;;1.20;;
32445;SDS011;18899;50.748;7.102;2023-04-24T08:22:31;2.42;;;1.00;;
32445;SDS011;18899;50.748;7.102;2023-04-24T08:24:56;1.70;;;1.10;;
32445;SDS011;18899;50.748;7.102;2023-04-24T08:27:24;4.00;;;1.00;;
32445;SDS011;18899;50.748;7.102;2023-04-24T08:29:52;1.35;;;1.00;;
32445;SDS011;18899;50.748;7.102;2023-04-24T08:32:18;4.00;;;1.27;;
32445;SDS011;18899;50.748;7.102;2023-04-24T08:34:44;1.80;;;1.17;;
32445;SDS011;18899;50.748;7.102;2023-04-24T08:37:09;3.63;;;1.17;;
32445;SDS011;18899;50.748;7.102;2023-04-24T08:39:35;1.75;;;1.02;;
32445;SDS011;18899;50.748;7.102;2023-04-24T08:42:01;2.35;;;1.10;;
32445;SDS011;18899;50.748;7.102;2023-04-24T08:44:32;6.75;;;1.25;;
32445;SDS011;18899;50.748;7.102;2023-04-24T08:46:59;2.03;;;1.30;;
32445;SDS011;18899;50.748;7.102;2023-04-24T08:49:26;4.40;;;1.27;;
32445;SDS011;18899;50.748;7.102;2023-04-24T08:51:53;3.25;;;1.35;;
32445;SDS011;18899;50.748;7.102;2023-04-24T08:54:18;3.67;;;1.55;;
32445;SDS011;18899;50.748;7.102;2023-04-24T08:56:44;2.42;;;1.60;;
32445;SDS011;18899;50.748;7.102;2023-04-24T08:59:12;3.30;;;1.60;;
32445;SDS011;18899;50.748;7.102;2023-04-24T09:01:39;20.67;;;1.90;;
32445;SDS011;18899;50.748;7.102;2023-04-24T09:04:06;3.97;;;1.70;;
32445;SDS011;18899;50.748;7.102;2023-04-24T09:06:34;3.95;;;2.10;;
32445;SDS011;18899;50.748;7.102;2023-04-24T09:09:00;2.58;;;2.08;;
32445;SDS011;18899;50.748;7.102;2023-04-24T09:11:29;6.38;;;2.15;;
32445;SDS011;18899;50.748;7.102;2023-04-24T09:13:55;6.15;;;2.08;;
32445;SDS011;18899;50.748;7.102;2023-04-24T09:16:21;4.97;;;2.10;;
32445;SDS011;18899;50.748;7.102;2023-04-24T09:18:49;5.93;;;2.58;;
32445;SDS011;18899;50.748;7.102;2023-04-24T09:21:15;7.60;;;2.92;;
32445;SDS011;18899;50.748;7.102;2023-04-24T09:23:41;4.97;;;2.15;;
32445;SDS011;18899;50.748;7.102;2023-04-24T09:26:06;6.72;;;3.20;;
32445;SDS011;18899;50.748;7.102;2023-04-24T09:28:35;10.57;;;3.22;;
32445;SDS011;18899;50.748;7.102;2023-04-24T09:31:09;5.70;;;3.53;;
32445;SDS011;18899;50.748;7.102;2023-04-24T09:33:36;7.25;;;2.88;;
32445;SDS011;18899;50.748;7.102;2023-04-24T09:36:02;7.53;;;3.08;;
32445;SDS011;18899;50.748;7.102;2023-04-24T09:38:32;7.47;;;3.65;;
32445;SDS011;18899;50.748;7.102;2023-04-24T09:40:59;4.35;;;3.10;;
32445;SDS011;18899;50.748;7.102;2023-04-24T09:43:27;5.75;;;3.38;;
32445;SDS011;18899;50.748;7.102;2023-04-24T09:45:55;5.22;;;3.22;;
32445;SDS011;18899;50.748;7.102;2023-04-24T09:48:31;5.65;;;3.17;;
32445;SDS011;18899;50.748;7.102;2023-04-24T09:50:58;6.20;;;3.20;;
32445;SDS011;18899;50.748;7.102;2023-04-24T09:53:26;5.30;;;2.90;;
32445;SDS011;18899;50.748;7.102;2023-04-24T09:55:52;6.40;;;3.30;;
32445;SDS011;18899;50.748;7.102;2023-04-24T09:58:21;6.15;;;3.80;;
32445;SDS011;18899;50.748;7.102;2023-04-24T10:00:53;7.20;;;3.08;;
32445;SDS011;18899;50.748;7.102;2023-04-24T10:03:19;6.13;;;3.22;;
32445;SDS011;18899;50.748;7.102;2023-04-24T10:05:46;4.65;;;2.80;;
32445;SDS011;18899;50.748;7.102;2023-04-24T10:08:12;6.00;;;2.95;;
32445;SDS011;18899;50.748;7.102;2023-04-24T10:10:39;4.30;;;2.75;;
32445;SDS011;18899;50.748;7.102;2023-04-24T10:13:12;10.90;;;2.90;;
32445;SDS011;18899;50.748;7.102;2023-04-24T10:15:39;5.60;;;2.72;;
32445;SDS011;18899;50.748;7.102;2023-04-24T10:18:06;7.75;;;2.92;;
32445;SDS011;18899;50.748;7.102;2023-04-24T10:20:32;5.78;;;3.03;;
32445;SDS011;18899;50.748;7.102;2023-04-24T10:22:59;5.85;;;3.03;;
32445;SDS011;18899;50.748;7.102;2023-04-24T10:25:26;8.50;;;3.53;;
32445;SDS011;18899;50.748;7.102;2023-04-24T10:27:53;9.40;;;3.17;;
32445;SDS011;18899;50.748;7.102;2023-04-24T10:30:34;9.27;;;4.00;;
32445;SDS011;18899;50.748;7.102;2023-04-24T10:33:00;7.85;;;3.20;;
32445;SDS011;18899;50.748;7.102;2023-04-24T10:35:26;6.55;;;3.33;;
32445;SDS011;18899;50.748;7.102;2023-04-24T10:37:57;4.70;;;2.83;;
32445;SDS011;18899;50.748;7.102;2023-04-24T10:40:32;8.65;;;3.17;;
32445;SDS011;18899;50.748;7.102;2023-04-24T10:42:59;7.50;;;2.95;;
32445;SDS011;18899;50.748;7.102;2023-04-24T10:45:27;7.82;;;3.25;;
32445;SDS011;18899;50.748;7.102;2023-04-24T10:50:28;5.05;;;2.70;;
32445;SDS011;18899;50.748;7.102;2023-04-24T10:53:11;7.15;;;2.80;;
32445;SDS011;18899;50.748;7.102;2023-04-24T10:55:45;9.25;;;2.75;;
32445;SDS011;18899;50.748;7.102;2023-04-24T10:58:15;10.80;;;3.00;;
32445;SDS011;18899;50.748;7.102;2023-04-24T11:00:42;12.65;;;3.05;;
32445;SDS011;18899;50.748;7.102;2023-04-24T11:03:22;6.78;;;3.15;;
32445;SDS011;18899;50.748;7.102;2023-04-24T11:05:52;5.32;;;3.08;;
32445;SDS011;18899;50.748;7.102;2023-04-24T11:08:27;10.52;;;3.25;;
32445;SDS011;18899;50.748;7.102;2023-04-24T11:16:20;7.35;;;4.00;;
32445;SDS011;18899;50.748;7.102;2023-04-24T11:18:59;10.75;;;4.75;;
32445;SDS011;18899;50.748;7.102;2023-04-24T11:29:43;10.98;;;4.82;;
32445;SDS011;18899;50.748;7.102;2023-04-24T11:34:54;12.32;;;5.00;;
32445;SDS011;18899;50.748;7.102;2023-04-24T11:37:29;9.43;;;3.63;;
32445;SDS011;18899;50.748;7.102;2023-04-24T11:40:15;6.30;;;4.00;;
32445;SDS011;18899;50.748;7.102;2023-04-24T11:42:45;10.93;;;4.15;;
32445;SDS011;18899;50.748;7.102;2023-04-24T11:45:18;10.10;;;3.63;;
32445;SDS011;18899;50.748;7.102;2023-04-24T11:47:53;7.70;;;3.40;;
32445;SDS011;18899;50.748;7.102;2023-04-24T11:50:21;11.50;;;3.42;;
32445;SDS011;18899;50.748;7.102;2023-04-24T11:52:49;9.27;;;3.35;;
32445;SDS011;18899;50.748;7.102;2023-04-24T11:57:50;8.65;;;3.33;;
32445;SDS011;18899;50.748;7.102;2023-04-24T12:00:25;9.07;;;3.60;;
32445;SDS011;18899;50.748;7.102;2023-04-24T12:05:50;12.30;;;3.20;;
32445;SDS011;18899;50.748;7.102;2023-04-24T12:08:28;10.02;;;3.15;;
32445;SDS011;18899;50.748;7.102;2023-04-24T12:10:54;10.18;;;3.15;;
32445;SDS011;18899;50.748;7.102;2023-04-24T12:13:19;13.52;;;3.28;;
32445;SDS011;18899;50.748;7.102;2023-04-24T12:15:45;11.30;;;3.13;;
32445;SDS011;18899;50.748;7.102;2023-04-24T12:18:13;7.90;;;2.92;;
32445;SDS011;18899;50.748;7.102;2023-04-24T12:23:07;12.30;;;3.05;;
32445;SDS011;18899;50.748;7.102;2023-04-24T12:25:32;10.35;;;3.50;;
32445;SDS011;18899;50.748;7.102;2023-04-24T12:32:58;12.52;;;3.83;;
32445;SDS011;18899;50.748;7.102;2023-04-24T12:35:25;11.07;;;3.75;;
32445;SDS011;18899;50.748;7.102;2023-04-24T12:37:52;9.75;;;3.67;;
32445;SDS011;18899;50.748;7.102;2023-04-24T12:40:19;9.77;;;4.15;;
32445;SDS011;18899;50.748;7.102;2023-04-24T12:42:46;8.65;;;3.72;;
32445;SDS011;18899;50.748;7.102;2023-04-24T12:45:12;12.05;;;4.13;;
32445;SDS011;18899;50.748;7.102;2023-04-24T12:47:39;9.52;;;3.92;;
32445;SDS011;18899;50.748;7.102;2023-04-24T12:50:07;11.90;;;4.55;;
32445;SDS011;18899;50.748;7.102;2023-04-24T12:52:34;16.80;;;4.38;;
32445;SDS011;18899;50.748;7.102;2023-04-24T12:55:00;7.07;;;3.40;;
32445;SDS011;18899;50.748;7.102;2023-04-24T12:57:27;13.23;;;4.18;;
32445;SDS011;18899;50.748;7.102;2023-04-24T12:59:54;11.52;;;4.07;;
32445;SDS011;18899;50.748;7.102;2023-04-24T13:02:21;12.77;;;3.63;;
32445;SDS011;18899;50.748;7.102;2023-04-24T13:04:50;7.80;;;3.47;;
32445;SDS011;18899;50.748;7.102;2023-04-24T13:07:17;9.82;;;3.53;;
32445;SDS011;18899;50.748;7.102;2023-04-24T13:09:43;8.13;;;3.25;;
32445;SDS011;18899;50.748;7.102;2023-04-24T13:12:09;11.82;;;3.70;;
32445;SDS011;18899;50.748;7.102;2023-04-24T13:14:36;10.60;;;3.67;;
32445;SDS011;18899;50.748;7.102;2023-04-24T13:17:02;10.70;;;3.67;;
32445;SDS011;18899;50.748;7.102;2023-04-24T13:19:28;9.10;;;3.72;;
32445;SDS011;18899;50.748;7.102;2023-04-24T13:21:54;13.20;;;3.70;;
32445;SDS011;18899;50.748;7.102;2023-04-24T13:24:22;9.10;;;3.95;;
32445;SDS011;18899;50.748;7.102;2023-04-24T13:26:51;5.70;;;2.83;;
32445;SDS011;18899;50.748;7.102;2023-04-24T13:29:17;7.60;;;3.20;;
32445;SDS011;18899;50.748;7.102;2023-04-24T13:31:43;6.63;;;2.80;;
32445;SDS011;18899;50.748;7.102;2023-04-24T13:34:09;10.77;;;3.22;;
32445;SDS011;18899;50.748;7.102;2023-04-24T13:36:35;8.13;;;2.53;;
32445;SDS011;18899;50.748;7.102;2023-04-24T13:39:01;9.90;;;3.50;;
32445;SDS011;18899;50.748;7.102;2023-04-24T13:41:29;5.28;;;2.53;;
32445;SDS011;18899;50.748;7.102;2023-04-24T13:43:55;9.27;;;3.25;;
32445;SDS011;18899;50.748;7.102;2023-04-24T13:46:20;10.77;;;3.58;;
32445;SDS011;18899;50.748;7.102;2023-04-24T13:48:46;5.47;;;2.83;;
32445;SDS011;18899;50.748;7.102;2023-04-24T13:51:11;7.55;;;3.60;;
32445;SDS011;18899;50.748;7.102;2023-04-24T13:53:37;9.70;;;3.42;;
32445;SDS011;18899;50.748;7.102;2023-04-24T13:56:03;7.50;;;3.42;;
32445;SDS011;18899;50.748;7.102;2023-04-24T13:58:30;9.35;;;3.47;;
32445;SDS011;18899;50.748;7.102;2023-04-24T14:00:57;9.00;;;3.50;;
32445;SDS011;18899;50.748;7.102;2023-04-24T14:03:22;12.50;;;3.65;;
32445;SDS011;18899;50.748;7.102;2023-04-24T14:05:48;11.45;;;3.30;;
32445;SDS011;18899;50.748;7.102;2023-04-24T14:08:13;12.60;;;3.95;;
32445;SDS011;18899;50.748;7.102;2023-04-24T14:10:39;14.02;;;3.90;;
32445;SDS011;18899;50.748;7.102;2023-04-24T14:13:04;8.95;;;4.18;;
32445;SDS011;18899;50.748;7.102;2023-04-24T14:15:31;12.15;;;4.35;;
32445;SDS011;18899;50.748;7.102;2023-04-24T14:17:56;11.02;;;4.38;;
32445;SDS011;18899;50.748;7.102;2023-04-24T14:20:22;12.40;;;4.32;;
32445;SDS011;18899;50.748;7.102;2023-04-24T14:22:48;9.48;;;4.00;;
32445;SDS011;18899;50.748;7.102;2023-04-24T14:25:13;8.40;;;4.25;;
32445;SDS011;18899;50.748;7.102;2023-04-24T14:27:40;11.00;;;4.22;;
32445;SDS011;18899;50.748;7.102;2023-04-24T14:30:06;12.18;;;4.28;;
32445;SDS011;18899;50.748;7.102;2023-04-24T14:32:32;10.35;;;4.00;;
32445;SDS011;18899;50.748;7.102;2023-04-24T14:34:57;11.23;;;3.88;;
32445;SDS011;18899;50.748;7.102;2023-04-24T14:37:23;11.93;;;4.05;;
32445;SDS011;18899;50.748;7.102;2023-04-24T14:39:48;10.32;;;3.45;;
32445;SDS011;18899;50.748;7.102;2023-04-24T14:42:14;10.40;;;4.05;;
32445;SDS011;18899;50.748;7.102;2023-04-24T14:44:41;11.68;;;3.60;;
32445;SDS011;18899;50.748;7.102;2023-04-24T14:47:07;12.05;;;3.65;;
32445;SDS011;18899;50.748;7.102;2023-04-24T14:49:32;9.95;;;4.32;;
32445;SDS011;18899;50.748;7.102;2023-04-24T14:51:58;8.88;;;3.55;;
32445;SDS011;18899;50.748;7.102;2023-04-24T14:54:23;8.48;;;3.47;;
32445;SDS011;18899;50.748;7.102;2023-04-24T14:56:50;13.85;;;4.13;;
32445;SDS011;18899;50.748;7.102;2023-04-24T14:59:15;10.40;;;3.80;;
32445;SDS011;18899;50.748;7.102;2023-04-24T15:01:41;10.68;;;3.35;;
32445;SDS011;18899;50.748;7.102;2023-04-24T15:04:07;7.25;;;3.28;;
32445;SDS011;18899;50.748;7.102;2023-04-24T15:06:32;8.52;;;3.92;;
32445;SDS011;18899;50.748;7.102;2023-04-24T15:08:58;6.32;;;3.38;;
32445;SDS011;18899;50.748;7.102;2023-04-24T15:11:23;9.55;;;3.35;;
32445;SDS011;18899;50.748;7.102;2023-04-24T15:13:49;7.30;;;3.10;;
32445;SDS011;18899;50.748;7.102;2023-04-24T15:16:15;7.88;;;3.17;;